Huvudsida
METAR-TAF:

METAR-TAF

Flygplatser :

Berlin-Tegels flygplats

Berlin, Tyskland

latitud: 52-34N, longitud: 013-19E, höjd: 37 m

Aktuellt väderrapport

Denna rapport gjordes för 23 minuter sedan, klockan 03:20 UTC
Vind 2 kt varierande vindriktning
Temperatur 15°C
Fuktighet 82%
Tryck 1005 hPa
Sikt 10 km eller mer
Inga moln under 1 500 m eller inga cumulonimbus

METAR: EDDT 230320Z VRB02KT CAVOK 15/12 Q1005 NOSIG

Tid: 05:43 (03:43 UTC)

Väderprognos

Denna rapport gjordes för 4 timmar och 43 minuter sedan, klockan 23:00 UTC
Prognos gäller från 23 kl. 00 UTC till 23 kl. 24 UTC
Vind 3 kt varierande vindriktning
Sikt 10 km eller mer
Inga moln under 1 500 m eller inga cumulonimbus
Blir
från 23 kl. 07 UTC till 23 kl. 10 UTC
Vind 5 kt från sydväst
Blir
från 23 kl. 16 UTC till 23 kl. 19 UTC
Vind 3 kt varierande vindriktning

TAF: EDDT 222300Z 2300/2324 VRB03KT CAVOK BECMG 2307/2310 22005KT BECMG 2316/2319 VRB03KT

Aktuella väderrapporter och prognoser från 4000 flygplatser (METAR- och TAF-rapporter).

De tillgängliga stationerna syns som gula och röda prickar på kartan.

För musen över prickarna för att se namnen på stationerna.

Klicka sedan för att få väderrapporter och prognoser.

För att ändra kartan: Klicka på de gröna knapparna med ett svart kors på för att zooma in; den gröna knappen med ett streck på för att zooma ut; eller på de gröna pilarna för angränsande kartor.


METAR-TAF: